createdAt,value
2018-01-12T00:01:06.956Z,1.90
2018-01-12T00:03:35.386Z,2.00
2018-01-12T00:06:04.030Z,2.00
2018-01-12T00:08:32.693Z,2.00
2018-01-12T00:11:01.085Z,2.00
2018-01-12T00:13:29.750Z,2.00
2018-01-12T00:15:58.123Z,2.00
2018-01-12T00:18:27.114Z,2.00
2018-01-12T00:20:55.535Z,2.00
2018-01-12T00:23:24.175Z,2.00
2018-01-12T00:25:52.833Z,1.90
2018-01-12T00:28:21.324Z,2.00
2018-01-12T00:30:49.853Z,2.10
2018-01-12T00:33:18.229Z,2.00
2018-01-12T00:35:46.609Z,2.00
2018-01-12T00:38:14.811Z,2.00
2018-01-12T00:40:43.777Z,2.00
2018-01-12T00:43:12.232Z,2.00
2018-01-12T00:45:40.695Z,2.00
2018-01-12T00:48:09.068Z,2.00
2018-01-12T00:50:37.248Z,1.90
2018-01-12T00:53:05.950Z,1.90
2018-01-12T00:55:34.197Z,1.90
2018-01-12T00:58:02.638Z,1.90
2018-01-12T01:00:31.297Z,1.90
2018-01-12T01:02:59.978Z,1.80
2018-01-12T01:05:28.634Z,1.80
2018-01-12T01:07:57.218Z,1.90
2018-01-12T01:10:25.606Z,1.90
2018-01-12T01:12:54.297Z,1.90
2018-01-12T01:15:22.973Z,1.90
2018-01-12T01:17:51.357Z,1.90
2018-01-12T01:20:20.009Z,1.90
2018-01-12T01:22:48.398Z,1.90
2018-01-12T01:25:16.944Z,1.90
2018-01-12T01:27:45.142Z,1.90
2018-01-12T01:30:13.531Z,1.90
2018-01-12T01:32:42.247Z,1.90
2018-01-12T01:35:10.894Z,1.90
2018-01-12T01:37:39.460Z,2.00
2018-01-12T01:40:08.286Z,1.90
2018-01-12T01:42:36.798Z,1.80
2018-01-12T01:45:05.172Z,1.90
2018-01-12T01:47:33.548Z,1.90
2018-01-12T01:50:02.136Z,1.90
2018-01-12T01:52:31.270Z,1.90
2018-01-12T01:54:59.927Z,1.80
2018-01-12T01:57:28.584Z,1.80
2018-01-12T01:59:57.569Z,1.80
2018-01-12T02:02:26.234Z,1.80
2018-01-12T02:04:55.645Z,1.90
2018-01-12T02:07:24.019Z,1.90
2018-01-12T02:09:52.545Z,1.90
2018-01-12T02:12:21.125Z,1.90
2018-01-12T02:14:49.489Z,1.90
2018-01-12T02:17:18.037Z,1.80
2018-01-12T02:19:46.408Z,1.80
2018-01-12T02:22:14.777Z,1.80
2018-01-12T02:24:43.431Z,1.90
2018-01-12T02:27:11.797Z,1.90
2018-01-12T02:29:41.180Z,1.90
2018-01-12T02:32:09.854Z,1.80
2018-01-12T02:34:38.510Z,1.90
2018-01-12T02:37:07.152Z,1.80
2018-01-12T02:39:35.536Z,1.90
2018-01-12T02:42:03.897Z,1.80
2018-01-12T02:44:33.072Z,1.80
2018-01-12T02:47:01.782Z,1.80
2018-01-12T02:49:30.166Z,1.80
2018-01-12T02:51:58.700Z,1.80
2018-01-12T02:54:27.646Z,1.90
2018-01-12T02:56:56.298Z,1.90
2018-01-12T02:59:24.939Z,1.90
2018-01-12T03:01:54.086Z,1.90
2018-01-12T03:04:22.731Z,1.90
2018-01-12T03:06:51.383Z,1.90
2018-01-12T03:09:20.529Z,1.90
2018-01-12T03:11:48.945Z,1.90
2018-01-12T03:14:17.581Z,1.90
2018-01-12T03:16:47.009Z,2.00
2018-01-12T03:19:16.197Z,2.00
2018-01-12T03:21:45.281Z,2.00
2018-01-12T03:24:13.753Z,2.00
2018-01-12T03:26:42.257Z,2.00
2018-01-12T03:29:11.233Z,2.00
2018-01-12T03:31:39.853Z,2.00
2018-01-12T03:34:08.511Z,2.10
2018-01-12T03:36:36.879Z,2.00
2018-01-12T03:39:06.301Z,2.00
2018-01-12T03:41:34.997Z,2.00
2018-01-12T03:44:03.647Z,1.90
2018-01-12T03:46:32.217Z,1.90
2018-01-12T03:49:00.604Z,2.00
2018-01-12T03:51:29.113Z,2.00
2018-01-12T03:53:57.766Z,2.00
2018-01-12T03:56:26.574Z,2.00
2018-01-12T03:58:55.016Z,2.00
2018-01-12T04:01:23.552Z,2.00
2018-01-12T04:03:52.050Z,2.00
2018-01-12T04:06:20.488Z,1.90
2018-01-12T04:08:48.984Z,2.00
2018-01-12T04:11:17.636Z,2.00
2018-01-12T04:13:46.312Z,2.00
2018-01-12T04:16:14.881Z,2.00
2018-01-12T04:18:43.530Z,2.00
2018-01-12T04:21:12.191Z,2.00
2018-01-12T04:23:40.585Z,2.00
2018-01-12T04:26:09.237Z,2.00
2018-01-12T04:28:37.605Z,1.90
2018-01-12T04:31:06.265Z,2.00
2018-01-12T04:33:35.727Z,1.90
2018-01-12T04:36:04.097Z,1.90
2018-01-12T04:38:32.867Z,2.00
2018-01-12T04:41:01.242Z,2.00
2018-01-12T04:43:29.623Z,2.00
2018-01-12T04:45:59.049Z,2.00
2018-01-12T04:48:27.425Z,2.00
2018-01-12T04:50:55.793Z,2.00
2018-01-12T04:53:24.401Z,2.10
2018-01-12T04:55:53.701Z,2.10
2018-01-12T04:58:22.451Z,2.10
2018-01-12T05:00:50.947Z,2.10
2018-01-12T05:03:19.546Z,2.10
2018-01-12T05:05:48.194Z,2.10
2018-01-12T05:08:16.591Z,2.10
2018-01-12T05:10:44.974Z,2.10
2018-01-12T05:13:13.742Z,2.10
2018-01-12T05:15:43.172Z,2.10
2018-01-12T05:18:11.737Z,2.10
2018-01-12T05:20:41.050Z,2.00
2018-01-12T05:23:09.664Z,2.00
2018-01-12T05:25:38.230Z,2.00
2018-01-12T05:28:06.598Z,2.10
2018-01-12T05:30:35.299Z,2.00
2018-01-12T05:33:03.670Z,2.00
2018-01-12T05:35:32.361Z,2.00
2018-01-12T05:38:00.749Z,2.00
2018-01-12T05:40:30.137Z,2.00
2018-01-12T05:42:58.676Z,2.00
2018-01-12T05:45:27.205Z,2.10
2018-01-12T05:47:56.454Z,2.10
2018-01-12T05:50:25.878Z,2.10
2018-01-12T05:52:54.549Z,2.00
2018-01-12T05:55:22.925Z,2.10
2018-01-12T05:57:52.333Z,2.00
2018-01-12T06:00:21.761Z,2.00
2018-01-12T06:06:04.942Z,2.10
2018-01-12T06:08:35.646Z,2.00
2018-01-12T06:11:04.453Z,2.00
2018-01-12T06:13:33.126Z,2.00
2018-01-12T06:16:01.786Z,2.00
2018-01-12T06:18:30.547Z,2.00
2018-01-12T06:20:59.343Z,2.00
2018-01-12T06:23:28.732Z,2.10
2018-01-12T06:25:57.113Z,2.10
2018-01-12T06:28:25.498Z,2.00
2018-01-12T06:30:59.912Z,2.00
2018-01-12T06:33:28.286Z,1.90
2018-01-12T06:35:57.072Z,1.90
2018-01-12T06:38:26.490Z,1.90
2018-01-12T06:40:55.150Z,1.90
2018-01-12T06:43:24.567Z,2.00
2018-01-12T06:45:52.934Z,2.00
2018-01-12T06:48:21.562Z,1.90
2018-01-12T06:50:50.246Z,1.90
2018-01-12T06:53:18.885Z,2.00
2018-01-12T06:55:48.974Z,2.00
2018-01-12T06:58:18.570Z,2.00
2018-01-12T07:00:47.227Z,2.10
2018-01-12T07:03:15.605Z,2.10
2018-01-12T07:05:43.982Z,2.10
2018-01-12T07:08:12.353Z,2.10
2018-01-12T07:10:40.733Z,2.10
2018-01-12T07:13:09.113Z,2.20
2018-01-12T07:15:37.557Z,2.20
2018-01-12T07:18:06.318Z,2.20
2018-01-12T07:20:46.623Z,2.10
2018-01-12T07:23:26.320Z,2.10
2018-01-12T07:25:54.858Z,2.10
2018-01-12T07:28:23.222Z,2.10
2018-01-12T07:30:51.958Z,2.10
2018-01-12T07:33:20.609Z,2.00
2018-01-12T07:35:49.257Z,2.00
2018-01-12T07:38:17.958Z,2.00
2018-01-12T07:40:47.471Z,2.10
2018-01-12T07:43:16.140Z,2.10
2018-01-12T07:45:45.566Z,2.20
2018-01-12T07:48:13.958Z,2.10
2018-01-12T07:50:42.621Z,2.30
2018-01-12T07:53:16.490Z,2.20
2018-01-12T07:55:45.700Z,2.20
2018-01-12T07:58:14.138Z,2.20
2018-01-12T08:00:47.907Z,2.30
2018-01-12T08:03:16.556Z,2.30
2018-01-12T08:05:45.704Z,2.30
2018-01-12T08:08:14.088Z,2.30
2018-01-12T08:10:42.464Z,2.30
2018-01-12T08:13:10.932Z,2.30
2018-01-12T08:15:39.544Z,2.40
2018-01-12T08:18:08.184Z,2.40
2018-01-12T08:20:37.598Z,2.40
2018-01-12T08:23:05.971Z,2.40
2018-01-12T08:25:34.341Z,2.50
2018-01-12T08:28:02.944Z,2.50
2018-01-12T08:30:31.326Z,2.60
2018-01-12T08:32:59.782Z,2.60
2018-01-12T08:35:27.961Z,2.70
2018-01-12T08:37:56.465Z,2.70
2018-01-12T08:40:25.153Z,2.80
2018-01-12T08:42:53.646Z,2.80
2018-01-12T08:45:22.172Z,2.80
2018-01-12T08:47:51.592Z,2.80
2018-01-12T08:50:20.261Z,2.80
2018-01-12T08:52:48.640Z,2.80
2018-01-12T08:55:16.837Z,2.70
2018-01-12T08:57:45.288Z,2.70
2018-01-12T09:00:15.029Z,2.90
2018-01-12T09:02:43.402Z,2.90
2018-01-12T09:05:12.078Z,3.00
2018-01-12T09:07:40.469Z,2.90
2018-01-12T09:10:08.850Z,2.80
2018-01-12T09:12:37.230Z,2.80
2018-01-12T09:15:25.901Z,2.90
2018-01-12T09:17:53.621Z,2.80
2018-01-12T09:20:21.328Z,2.90
2018-01-12T09:22:49.718Z,2.90
2018-01-12T09:25:26.649Z,2.80
2018-01-12T09:27:55.213Z,2.80
2018-01-12T09:30:24.521Z,2.80
2018-01-12T09:32:53.272Z,2.90
2018-01-12T09:35:22.417Z,3.00
2018-01-12T09:38:02.281Z,3.00
2018-01-12T09:40:37.887Z,3.10
2018-01-12T09:43:06.261Z,3.30
2018-01-12T09:45:34.675Z,3.30
2018-01-12T09:48:14.255Z,3.10
2018-01-12T09:50:43.389Z,3.50
2018-01-12T09:53:12.029Z,3.50
2018-01-12T09:55:41.173Z,3.70
2018-01-12T09:58:09.537Z,3.60
2018-01-12T10:00:46.864Z,3.60
2018-01-12T10:03:15.236Z,3.60
2018-01-12T10:05:43.988Z,3.50
2018-01-12T10:08:16.520Z,3.50
2018-01-12T10:10:45.332Z,3.50
2018-01-12T10:13:13.780Z,3.50
2018-01-12T10:15:42.162Z,3.60
2018-01-12T10:18:13.076Z,3.80
2018-01-12T10:20:41.452Z,3.70
2018-01-12T10:23:10.208Z,3.70
2018-01-12T10:25:39.634Z,3.90
2018-01-12T10:28:07.819Z,3.90
2018-01-12T10:30:55.280Z,3.90
2018-01-12T10:36:40.178Z,3.90
2018-01-12T10:39:25.213Z,3.90
2018-01-12T10:42:03.849Z,3.90
2018-01-12T10:44:32.511Z,4.00
2018-01-12T10:47:16.272Z,4.00
2018-01-12T10:49:56.209Z,4.10
2018-01-12T10:52:31.965Z,4.30
2018-01-12T10:55:01.094Z,4.60
2018-01-12T10:57:30.509Z,4.70
2018-01-12T10:59:59.418Z,4.70
2018-01-12T11:02:28.066Z,4.80
2018-01-12T11:04:56.721Z,5.00
2018-01-12T11:07:25.873Z,5.40
2018-01-12T11:09:54.265Z,5.40
2018-01-12T11:12:23.733Z,5.60
2018-01-12T11:14:53.156Z,5.50
2018-01-12T11:17:21.529Z,5.40
2018-01-12T11:19:50.177Z,5.60
2018-01-12T11:22:18.749Z,5.30
2018-01-12T11:24:47.253Z,5.20
2018-01-12T11:27:15.897Z,4.90
2018-01-12T11:29:45.123Z,4.80
2018-01-12T11:32:14.253Z,4.80
2018-01-12T11:34:42.637Z,4.80
2018-01-12T11:37:11.033Z,4.70
2018-01-12T11:39:39.371Z,4.60
2018-01-12T11:42:07.736Z,4.60
2018-01-12T11:44:36.393Z,4.60
2018-01-12T11:47:05.136Z,4.70
2018-01-12T11:49:33.708Z,4.60
2018-01-12T11:52:02.109Z,4.60
2018-01-12T11:54:30.472Z,4.80
2018-01-12T11:56:59.090Z,4.90
2018-01-12T11:59:27.748Z,4.90
2018-01-12T12:01:56.214Z,5.00
2018-01-12T12:04:24.877Z,5.20
2018-01-12T12:06:53.486Z,4.90
2018-01-12T12:09:22.169Z,4.90
2018-01-12T12:11:50.640Z,4.80
2018-01-12T12:14:20.077Z,4.80
2018-01-12T12:16:48.445Z,4.70
2018-01-12T12:19:17.133Z,4.80
2018-01-12T12:21:45.521Z,4.90
2018-01-12T12:24:13.897Z,5.20
2018-01-12T12:26:42.545Z,5.40
2018-01-12T12:29:11.277Z,5.30
2018-01-12T12:31:40.013Z,5.20
2018-01-12T12:34:09.922Z,5.10
2018-01-12T12:36:38.407Z,5.00
2018-01-12T12:39:07.821Z,4.70
2018-01-12T12:41:36.183Z,4.80
2018-01-12T12:44:04.728Z,4.60
2018-01-12T12:46:33.391Z,4.50
2018-01-12T12:49:01.819Z,4.60
2018-01-12T12:51:31.160Z,4.40
2018-01-12T12:53:59.918Z,4.40
2018-01-12T12:56:28.290Z,4.30
2018-01-12T12:58:57.803Z,4.10
2018-01-12T13:01:26.264Z,4.10
2018-01-12T13:03:55.404Z,3.80
2018-01-12T13:06:23.804Z,3.80
2018-01-12T13:08:52.445Z,3.80
2018-01-12T13:11:22.036Z,3.90
2018-01-12T13:13:50.563Z,3.90
2018-01-12T13:16:19.236Z,4.10
2018-01-12T13:18:48.426Z,4.30
2018-01-12T13:21:17.124Z,4.30
2018-01-12T13:23:46.505Z,4.20
2018-01-12T13:26:15.918Z,4.40
2018-01-12T13:28:44.922Z,4.40
2018-01-12T13:31:14.610Z,4.50
2018-01-12T13:33:43.216Z,4.50
2018-01-12T13:36:11.895Z,4.60
2018-01-12T13:38:40.549Z,4.70
2018-01-12T13:41:08.932Z,4.70
2018-01-12T13:43:37.342Z,4.50
2018-01-12T13:46:06.192Z,4.40
2018-01-12T13:48:34.777Z,4.20
2018-01-12T13:51:03.161Z,4.20
2018-01-12T13:53:31.541Z,4.20
2018-01-12T13:56:00.341Z,4.00
2018-01-12T13:58:28.721Z,4.00
2018-01-12T14:00:57.280Z,3.90
2018-01-12T14:03:26.693Z,3.90
2018-01-12T14:05:55.305Z,3.90
2018-01-12T14:08:23.957Z,4.00
2018-01-12T14:10:52.359Z,4.00
2018-01-12T14:13:21.023Z,3.90
2018-01-12T14:15:49.406Z,3.80
2018-01-12T14:18:17.797Z,3.80
2018-01-12T14:20:46.280Z,3.60
2018-01-12T14:23:14.948Z,3.50
2018-01-12T14:25:43.612Z,3.50
2018-01-12T14:28:12.292Z,3.50
2018-01-12T14:30:40.934Z,3.60
2018-01-12T14:33:09.412Z,3.60
2018-01-12T14:35:37.874Z,3.60
2018-01-12T14:38:07.163Z,3.60
2018-01-12T14:40:35.534Z,3.50
2018-01-12T14:43:04.034Z,3.50
2018-01-12T14:45:32.413Z,3.40
2018-01-12T14:48:01.075Z,3.30
2018-01-12T14:50:29.771Z,3.20
2018-01-12T14:52:58.425Z,3.10
2018-01-12T14:55:26.809Z,3.20
2018-01-12T14:57:56.237Z,3.20
2018-01-12T15:00:25.453Z,3.20
2018-01-12T15:02:54.105Z,3.20
2018-01-12T15:05:22.489Z,3.10
2018-01-12T15:07:50.860Z,3.00
2018-01-12T15:10:20.269Z,3.00
2018-01-12T15:12:48.793Z,3.00
2018-01-12T15:15:17.413Z,2.90
2018-01-12T15:17:45.781Z,2.80
2018-01-12T15:20:14.443Z,2.80
2018-01-12T15:22:43.581Z,2.80
2018-01-12T15:25:12.102Z,2.80
2018-01-12T15:27:40.636Z,2.90
2018-01-12T15:30:10.082Z,3.00
2018-01-12T15:32:38.460Z,3.00
2018-01-12T15:35:07.040Z,3.00
2018-01-12T15:37:35.692Z,3.10
2018-01-12T15:40:04.012Z,3.10
2018-01-12T15:42:32.390Z,3.00
2018-01-12T15:45:00.818Z,3.00
2018-01-12T15:47:29.726Z,3.00
2018-01-12T15:49:58.374Z,3.00
2018-01-12T15:52:27.178Z,2.90
2018-01-12T15:54:55.934Z,2.90
2018-01-12T15:57:25.192Z,2.80
2018-01-12T15:59:53.871Z,2.80
2018-01-12T16:02:22.457Z,2.80
2018-01-12T16:04:51.780Z,2.80
2018-01-12T16:07:20.937Z,2.80
2018-01-12T16:09:49.321Z,2.80
2018-01-12T16:12:17.993Z,2.80
2018-01-12T16:14:46.453Z,2.90
2018-01-12T16:17:14.821Z,2.90
2018-01-12T16:19:43.969Z,2.90
2018-01-12T16:22:12.335Z,2.90
2018-01-12T16:24:41.030Z,3.00
2018-01-12T16:27:10.437Z,2.90
2018-01-12T16:29:39.081Z,2.90
2018-01-12T16:32:07.465Z,2.90
2018-01-12T16:34:36.037Z,3.00
2018-01-12T16:37:04.690Z,3.00
2018-01-12T16:39:34.173Z,3.00
2018-01-12T16:42:02.553Z,3.00
2018-01-12T16:44:31.117Z,3.00
2018-01-12T16:46:59.651Z,3.00
2018-01-12T16:49:28.797Z,3.00
2018-01-12T16:51:57.160Z,3.00
2018-01-12T16:54:25.630Z,3.00
2018-01-12T16:56:54.018Z,2.90
2018-01-12T16:59:22.402Z,3.00
2018-01-12T17:01:51.818Z,3.00
2018-01-12T17:04:20.565Z,3.00
2018-01-12T17:06:49.210Z,3.00
2018-01-12T17:09:18.474Z,3.00
2018-01-12T17:11:46.868Z,3.00
2018-01-12T17:14:15.538Z,3.00
2018-01-12T17:16:43.913Z,3.00
2018-01-12T17:19:12.851Z,2.90
2018-01-12T17:21:41.622Z,2.90
2018-01-12T17:24:10.187Z,2.90
2018-01-12T17:26:38.577Z,3.00
2018-01-12T17:29:07.157Z,3.00
2018-01-12T17:31:35.809Z,2.90
2018-01-12T17:34:03.866Z,3.00
2018-01-12T17:36:32.285Z,2.90
2018-01-12T17:39:00.660Z,2.90
2018-01-12T17:41:29.077Z,2.90
2018-01-12T17:43:57.741Z,2.80
2018-01-12T17:46:26.916Z,2.80
2018-01-12T17:48:55.577Z,2.80
2018-01-12T17:51:24.998Z,2.70
2018-01-12T17:53:53.956Z,2.70
2018-01-12T17:56:22.618Z,2.70
2018-01-12T17:58:51.240Z,2.70
2018-01-12T18:01:19.668Z,2.70
2018-01-12T18:03:48.340Z,2.70
2018-01-12T18:06:17.596Z,2.70
2018-01-12T18:08:47.018Z,2.70
2018-01-12T18:11:15.430Z,2.70
2018-01-12T18:13:43.802Z,2.60
2018-01-12T18:16:12.173Z,2.60
2018-01-12T18:18:40.589Z,2.60
2018-01-12T18:21:09.731Z,2.70
2018-01-12T18:23:38.385Z,2.70
2018-01-12T18:26:07.539Z,2.70
2018-01-12T18:28:36.049Z,2.70
2018-01-12T18:31:04.423Z,2.70
2018-01-12T18:33:33.573Z,2.70
2018-01-12T18:36:01.953Z,2.70
2018-01-12T18:38:30.327Z,2.70
2018-01-12T18:40:58.991Z,2.60
2018-01-12T18:43:28.413Z,2.70
2018-01-12T18:45:57.056Z,2.70
2018-01-12T18:48:25.700Z,2.80
2018-01-12T18:50:54.068Z,2.80
2018-01-12T18:53:22.629Z,2.80
2018-01-12T18:55:51.828Z,2.70
2018-01-12T18:58:20.476Z,2.70
2018-01-12T19:00:48.514Z,2.70
2018-01-12T19:03:17.135Z,2.70
2018-01-12T19:05:45.514Z,2.70
2018-01-12T19:08:13.888Z,2.70
2018-01-12T19:10:42.376Z,2.70
2018-01-12T19:13:10.757Z,2.70
2018-01-12T19:15:39.381Z,2.80
2018-01-12T19:18:07.765Z,2.80
2018-01-12T19:20:36.173Z,2.80
2018-01-12T19:23:04.593Z,2.80
2018-01-12T19:25:33.259Z,2.80
2018-01-12T19:28:02.253Z,2.80
2018-01-12T19:30:31.156Z,2.80
2018-01-12T19:32:59.680Z,2.70
2018-01-12T19:35:28.232Z,2.80
2018-01-12T19:37:56.628Z,2.70
2018-01-12T19:40:25.391Z,2.70
2018-01-12T19:42:53.792Z,2.70
2018-01-12T19:45:22.430Z,2.70
2018-01-12T19:47:50.907Z,2.70
2018-01-12T19:50:20.334Z,2.70
2018-01-12T19:52:48.741Z,2.70
2018-01-12T19:55:18.358Z,2.70
2018-01-12T19:57:46.922Z,2.70
2018-01-12T20:00:16.996Z,2.60
2018-01-12T20:02:46.319Z,2.70
2018-01-12T20:05:14.713Z,2.70
2018-01-12T20:07:43.226Z,2.70
2018-01-12T20:10:11.967Z,2.80
2018-01-12T20:12:40.440Z,2.80
2018-01-12T20:15:09.098Z,2.70
2018-01-12T20:17:37.537Z,2.70
2018-01-12T20:20:06.312Z,2.70
2018-01-12T20:22:34.769Z,2.60
2018-01-12T20:25:03.165Z,2.60
2018-01-12T20:27:31.819Z,2.60
2018-01-12T20:30:00.197Z,2.60
2018-01-12T20:32:28.657Z,2.60
2018-01-12T20:34:57.341Z,2.60
2018-01-12T20:37:25.989Z,2.70
2018-01-12T20:39:54.061Z,2.70
2018-01-12T20:42:22.900Z,2.70
2018-01-12T20:44:51.564Z,2.70
2018-01-12T20:47:20.468Z,2.80
2018-01-12T20:49:49.732Z,2.80
2018-01-12T20:52:18.464Z,2.70
2018-01-12T20:54:46.942Z,2.70
2018-01-12T20:57:15.314Z,2.70
2018-01-12T20:59:43.968Z,2.70
2018-01-12T21:02:13.194Z,2.70
2018-01-12T21:04:41.570Z,2.70
2018-01-12T21:07:10.976Z,2.80
2018-01-12T21:09:39.356Z,2.70
2018-01-12T21:12:07.722Z,2.80
2018-01-12T21:14:36.420Z,2.70
2018-01-12T21:17:05.848Z,2.80
2018-01-12T21:19:34.235Z,2.70
2018-01-12T21:22:02.913Z,2.80
2018-01-12T21:24:31.621Z,2.70
2018-01-12T21:27:00.348Z,2.70
2018-01-12T21:29:28.825Z,2.70
2018-01-12T21:31:58.178Z,2.70
2018-01-12T21:34:27.454Z,2.70
2018-01-12T21:36:55.838Z,2.70
2018-01-12T21:39:24.745Z,2.70
2018-01-12T21:41:54.072Z,2.70
2018-01-12T21:44:22.726Z,2.70
2018-01-12T21:46:51.107Z,2.70
2018-01-12T21:49:19.757Z,2.80
2018-01-12T21:51:49.173Z,2.80
2018-01-12T21:54:17.829Z,2.70
2018-01-12T21:56:46.389Z,2.70
2018-01-12T21:59:15.525Z,2.80
2018-01-12T22:01:43.901Z,2.70
2018-01-12T22:04:12.397Z,2.80
2018-01-12T22:06:40.987Z,2.80
2018-01-12T22:09:09.638Z,2.80
2018-01-12T22:11:39.053Z,2.80
2018-01-12T22:14:07.456Z,2.70
2018-01-12T22:16:35.836Z,2.70
2018-01-12T22:19:04.148Z,2.70
2018-01-12T22:21:33.288Z,2.70
2018-01-12T22:24:02.689Z,2.60
2018-01-12T22:26:31.092Z,2.60
2018-01-12T22:29:00.361Z,2.70
2018-01-12T22:31:29.020Z,2.60
2018-01-12T22:33:57.388Z,2.60
2018-01-12T22:36:26.644Z,2.60
2018-01-12T22:38:55.026Z,2.60
2018-01-12T22:41:23.404Z,2.70
2018-01-12T22:43:52.060Z,2.70
2018-01-12T22:46:20.622Z,2.70
2018-01-12T22:48:48.990Z,2.70
2018-01-12T22:51:18.070Z,2.70
2018-01-12T22:53:46.638Z,2.70
2018-01-12T22:56:16.154Z,2.60
2018-01-12T22:58:45.370Z,2.60
2018-01-12T23:01:13.782Z,2.60
2018-01-12T23:03:42.433Z,2.70
2018-01-12T23:06:10.813Z,2.70
2018-01-12T23:08:39.457Z,2.70
2018-01-12T23:11:08.109Z,2.70
2018-01-12T23:13:36.756Z,2.70
2018-01-12T23:16:05.481Z,2.60
2018-01-12T23:18:34.254Z,2.60
2018-01-12T23:21:02.665Z,2.60
2018-01-12T23:23:31.045Z,2.60
2018-01-12T23:25:59.696Z,2.60
2018-01-12T23:28:28.073Z,2.60
2018-01-12T23:30:57.490Z,2.70
2018-01-12T23:33:25.868Z,2.70
2018-01-12T23:35:54.352Z,2.70
2018-01-12T23:38:22.748Z,2.70
2018-01-12T23:40:51.399Z,2.70
2018-01-12T23:43:19.924Z,2.60
2018-01-12T23:45:48.305Z,2.70
2018-01-12T23:48:16.948Z,2.70
2018-01-12T23:50:46.343Z,2.70
2018-01-12T23:53:14.850Z,2.70
2018-01-12T23:55:43.806Z,2.70
2018-01-12T23:58:13.012Z,2.70
